Time;durP1;ratioP1;P1;durP2;ratioP2;P2;SDS_P1;SDS_P2;PMS_P1;PMS_P2;Temp;Humidity;BMP_temperature;BMP_pressure;BME280_temperature;BME280_humidity;BME280_pressure;Samples;Min_cycle;Max_cycle;Signal;HPM_P1;HPM_P2
2023/03/13 00:02:09;;;;;;;1999.90;999.90;;;8.90;99.90;;;;;;5077426;28;20876;-75
2023/03/13 00:04:34;;;;;;;1999.90;999.90;;;9.00;99.90;;;;;;5077322;28;20040;-74
2023/03/13 00:07:00;;;;;;;1999.90;999.90;;;9.20;99.90;;;;;;5077685;28;20029;-74
2023/03/13 00:09:26;;;;;;;1999.90;999.90;;;9.30;99.90;;;;;;5077394;28;20052;-74
2023/03/13 00:11:51;;;;;;;1999.90;999.90;;;9.40;99.90;;;;;;5077469;28;20037;-74
2023/03/13 00:14:17;;;;;;;1999.90;999.90;;;9.50;99.90;;;;;;5076956;28;20063;-74
2023/03/13 00:16:43;;;;;;;1999.90;999.90;;;9.40;99.90;;;;;;5077333;28;20422;-74
2023/03/13 00:19:09;;;;;;;1999.90;999.90;;;9.40;99.90;;;;;;5075961;28;20061;-74
2023/03/13 00:21:36;;;;;;;1999.90;999.90;;;9.40;99.90;;;;;;5077507;28;20511;-74
2023/03/13 00:24:02;;;;;;;1999.90;999.90;;;9.40;99.90;;;;;;5076916;28;20098;-75
2023/03/13 00:26:29;;;;;;;1999.90;999.90;;;9.40;99.90;;;;;;5077110;28;20063;-74
2023/03/13 00:28:54;;;;;;;1999.90;999.90;;;9.40;99.90;;;;;;5077260;28;20556;-75
2023/03/13 00:31:21;;;;;;;1999.90;999.90;;;9.40;99.90;;;;;;5077070;28;20040;-74
2023/03/13 00:33:49;;;;;;;1999.90;999.90;;;9.40;99.90;;;;;;5076783;28;20041;-75
2023/03/13 00:36:20;;;;;;;1999.90;999.90;;;9.50;99.90;;;;;;5075554;28;20054;-74
2023/03/13 00:38:46;;;;;;;1999.90;999.90;;;9.50;99.90;;;;;;5075696;28;20112;-75
2023/03/13 00:41:17;;;;;;;1999.90;999.90;;;9.60;99.90;;;;;;5076848;28;20025;-74
2023/03/13 00:43:43;;;;;;;1999.90;999.90;;;9.70;99.90;;;;;;5076383;28;20048;-75
2023/03/13 00:46:10;;;;;;;1999.90;999.90;;;9.70;99.90;;;;;;5075411;28;20052;-75
2023/03/13 00:48:36;;;;;;;1999.90;999.90;;;9.70;99.90;;;;;;5075545;28;20028;-74
2023/03/13 00:51:04;;;;;;;1999.90;999.90;;;9.80;99.90;;;;;;5076932;28;20037;-74
2023/03/13 00:53:30;;;;;;;1999.90;999.90;;;9.80;99.90;;;;;;5075172;28;20518;-74
2023/03/13 00:55:57;;;;;;;1999.90;999.90;;;9.90;99.90;;;;;;5075119;28;20033;-75
2023/03/13 00:58:24;;;;;;;1999.90;999.90;;;9.90;99.90;;;;;;5075427;28;20171;-74
2023/03/13 01:00:49;;;;;;;1999.90;999.90;;;9.90;99.90;;;;;;5076804;28;20033;-74
2023/03/13 01:03:15;;;;;;;1999.90;999.90;;;9.90;99.90;;;;;;5076588;28;20033;-74
2023/03/13 01:05:41;;;;;;;1999.90;999.90;;;10.00;99.90;;;;;;5076196;28;20033;-74
2023/03/13 01:08:06;;;;;;;1999.90;999.90;;;10.00;99.90;;;;;;5076732;28;20486;-74
2023/03/13 01:10:32;;;;;;;1999.90;999.90;;;10.00;99.90;;;;;;5075230;28;20116;-74
2023/03/13 01:12:58;;;;;;;1999.90;999.90;;;10.00;99.90;;;;;;5076231;28;20052;-74
2023/03/13 01:15:23;;;;;;;1999.90;999.90;;;10.00;99.90;;;;;;5076188;28;20044;-74
2023/03/13 01:17:49;;;;;;;1999.90;999.90;;;10.10;99.90;;;;;;5075014;28;20033;-75
2023/03/13 01:20:15;;;;;;;1999.90;999.90;;;10.10;99.90;;;;;;5076209;28;20474;-74
2023/03/13 01:22:40;;;;;;;1999.90;999.90;;;10.10;99.90;;;;;;5076158;28;20087;-74
2023/03/13 01:25:06;;;;;;;1999.90;999.90;;;10.00;99.90;;;;;;5075848;28;20517;-75
2023/03/13 01:27:32;;;;;;;1999.90;999.90;;;10.00;99.90;;;;;;5075907;28;20498;-74
2023/03/13 01:29:57;;;;;;;1999.90;999.90;;;10.00;99.90;;;;;;5076160;28;20036;-74
2023/03/13 01:32:23;;;;;;;1999.90;999.90;;;10.10;99.90;;;;;;5075931;28;20044;-74
2023/03/13 01:34:48;;;;;;;1999.90;999.90;;;10.10;99.90;;;;;;5075460;28;20029;-74
2023/03/13 01:37:14;;;;;;;1999.90;999.90;;;10.10;99.90;;;;;;5076009;28;20040;-74
2023/03/13 01:39:39;;;;;;;1999.90;999.90;;;10.10;99.90;;;;;;5075783;28;20029;-74
2023/03/13 01:42:05;;;;;;;1999.90;999.90;;;10.10;99.90;;;;;;5076013;28;20128;-75
2023/03/13 01:44:48;;;;;;;1999.90;999.90;;;10.20;99.90;;;;;;5075348;28;20405;-74
2023/03/13 01:47:14;;;;;;;1999.90;999.90;;;10.20;99.90;;;;;;5076228;28;20033;-74
2023/03/13 01:49:39;;;;;;;1999.90;999.90;;;10.20;99.90;;;;;;5076044;28;20032;-74
2023/03/13 01:52:09;;;;;;;1999.90;999.90;;;10.20;99.90;;;;;;5075100;28;20395;-74
2023/03/13 01:54:44;;;;;;;1999.90;999.90;;;10.20;99.90;;;;;;5075285;28;20881;-75
2023/03/13 01:57:29;;;;;;;1999.90;999.90;;;10.20;99.90;;;;;;5076061;28;20033;-74
2023/03/13 02:00:06;;;;;;;1999.90;999.90;;;10.20;99.90;;;;;;5074418;28;20084;-74
2023/03/13 02:02:33;;;;;;;1999.90;999.90;;;10.20;99.90;;;;;;5075917;28;20090;-74
2023/03/13 02:05:02;;;;;;;1999.90;999.90;;;10.30;99.90;;;;;;5075460;28;20040;-74
2023/03/13 02:07:33;;;;;;;1999.90;999.90;;;10.20;99.90;;;;;;5075387;28;20029;-74
2023/03/13 02:10:00;;;;;;;1999.90;999.90;;;10.20;99.90;;;;;;5075585;28;20486;-75
2023/03/13 02:12:32;;;;;;;1999.90;999.90;;;10.20;99.90;;;;;;5074157;28;20037;-74
2023/03/13 02:15:01;;;;;;;1999.90;999.90;;;10.00;99.90;;;;;;5075367;28;20029;-75
2023/03/13 02:17:26;;;;;;;1999.90;999.90;;;10.10;99.90;;;;;;5075659;28;20048;-75
2023/03/13 02:19:52;;;;;;;1999.90;999.90;;;10.10;99.90;;;;;;5074389;28;20025;-74
2023/03/13 02:22:45;;;;;;;1999.90;999.90;;;10.10;99.90;;;;;;5075433;28;20465;-75
2023/03/13 02:25:23;;;;;;;1999.90;999.90;;;10.10;99.90;;;;;;5073840;28;20033;-74
2023/03/13 02:28:04;;;;;;;1999.90;999.90;;;10.20;99.90;;;;;;5075314;28;20033;-74
2023/03/13 02:30:29;;;;;;;1999.90;999.90;;;10.20;99.90;;;;;;5075518;28;20088;-75
2023/03/13 02:32:55;;;;;;;1999.90;999.90;;;10.20;99.90;;;;;;5074904;28;20037;-74
2023/03/13 02:35:22;;;;;;;1999.90;999.90;;;10.30;99.90;;;;;;5074850;28;20032;-74
2023/03/13 02:37:52;;;;;;;1999.90;999.90;;;10.20;99.90;;;;;;5075176;28;20037;-74
2023/03/13 02:40:24;;;;;;;1999.90;999.90;;;10.30;99.90;;;;;;5075119;28;20033;-75
2023/03/13 02:42:53;;;;;;;1999.90;999.90;;;10.20;99.90;;;;;;5073297;28;20037;-74
2023/03/13 02:45:18;;;;;;;1999.90;999.90;;;10.20;99.90;;;;;;5074403;28;20035;-74
2023/03/13 02:47:44;;;;;;;1999.90;999.90;;;10.20;99.90;;;;;;5075150;28;20059;-75
2023/03/13 02:50:11;;;;;;;1999.90;999.90;;;10.20;99.90;;;;;;5075209;28;20478;-74
2023/03/13 02:52:58;;;;;;;1999.90;999.90;;;10.20;99.90;;;;;;5073457;28;20045;-74
2023/03/13 02:55:28;;;;;;;1999.90;999.90;;;10.20;99.90;;;;;;5074710;28;20040;-75
2023/03/13 02:57:54;;;;;;;1999.90;999.90;;;10.10;99.90;;;;;;5075181;28;20072;-75
2023/03/13 03:00:25;;;;;;;1999.90;999.90;;;10.10;99.90;;;;;;5074742;28;20040;-74
2023/03/13 03:02:50;;;;;;;1999.90;999.90;;;10.00;99.90;;;;;;5074933;28;20037;-74
2023/03/13 03:05:16;;;;;;;1999.90;999.90;;;9.90;99.90;;;;;;5074523;28;20078;-75
2023/03/13 03:07:41;;;;;;;1999.90;999.90;;;9.90;99.90;;;;;;5074749;28;20174;-74
2023/03/13 03:10:08;;;;;;;1999.90;999.90;;;9.80;99.90;;;;;;5074924;28;20103;-74
2023/03/13 03:12:33;;;;;;;1999.90;999.90;;;9.60;99.90;;;;;;5074382;28;20037;-74
2023/03/13 03:14:59;;;;;;;1999.90;999.90;;;9.40;99.90;;;;;;5074182;28;20029;-74
2023/03/13 03:17:24;;;;;;;1999.90;999.90;;;9.10;99.90;;;;;;5074876;28;20155;-74
2023/03/13 03:19:50;;;;;;;1999.90;999.90;;;9.00;99.90;;;;;;5074802;28;20479;-75
2023/03/13 03:22:15;;;;;;;1999.90;999.90;;;8.90;99.90;;;;;;5074575;28;20383;-74
2023/03/13 03:24:41;;;;;;;1999.90;999.90;;;8.80;99.90;;;;;;5074229;28;20033;-74
2023/03/13 03:27:06;;;;;;;1999.90;999.90;;;8.80;99.90;;;;;;5074314;28;20029;-74
2023/03/13 03:29:32;;;;;;;1999.90;999.90;;;8.90;99.90;;;;;;5074661;28;20033;-75
2023/03/13 03:31:57;;;;;;;1999.90;999.90;;;9.00;99.90;;;;;;5072926;28;20099;-74
2023/03/13 03:34:23;;;;;;;1999.90;999.90;;;9.10;99.90;;;;;;5074027;28;20029;-75
2023/03/13 03:36:48;;;;;;;1999.90;999.90;;;9.10;99.90;;;;;;5074537;28;20368;-74
2023/03/13 03:39:14;;;;;;;1999.90;999.90;;;9.20;99.90;;;;;;5074123;28;20124;-75
2023/03/13 03:41:39;;;;;;;1999.90;999.90;;;9.20;99.90;;;;;;5074431;28;20033;-75
2023/03/13 03:44:05;;;;;;;1999.90;999.90;;;9.20;99.90;;;;;;5072150;28;20745;-74
2023/03/13 03:46:30;;;;;;;1999.90;999.90;;;9.20;99.90;;;;;;5074139;28;20044;-74
2023/03/13 03:48:56;;;;;;;1999.90;999.90;;;9.30;99.90;;;;;;5072941;28;20492;-74
2023/03/13 03:51:22;;;;;;;1999.90;999.90;;;9.40;99.90;;;;;;5072717;28;20029;-75
2023/03/13 03:53:47;;;;;;;1999.90;999.90;;;9.40;99.90;;;;;;5074090;28;20041;-74
2023/03/13 03:56:13;;;;;;;1999.90;999.90;;;9.40;99.90;;;;;;5072713;28;20463;-75
2023/03/13 03:58:39;;;;;;;1999.90;999.90;;;9.50;99.90;;;;;;5072721;28;20445;-75
2023/03/13 04:01:04;;;;;;;1999.90;999.90;;;9.50;99.90;;;;;;5073945;28;20037;-74
2023/03/13 04:03:30;;;;;;;1999.90;999.90;;;9.50;99.90;;;;;;5074165;28;20495;-74
2023/03/13 04:05:55;;;;;;;1999.90;999.90;;;9.60;99.90;;;;;;5072187;28;20025;-75
2023/03/13 04:08:21;;;;;;;1999.90;999.90;;;9.50;99.90;;;;;;5072587;28;20032;-74
2023/03/13 04:10:47;;;;;;;1999.90;999.90;;;9.60;99.90;;;;;;5074105;28;20033;-75
2023/03/13 04:13:13;;;;;;;1999.90;999.90;;;9.60;99.90;;;;;;5073840;28;20099;-74
2023/03/13 04:15:39;;;;;;;1999.90;999.90;;;9.70;99.90;;;;;;5072943;28;20057;-74
2023/03/13 04:18:05;;;;;;;1999.90;999.90;;;9.70;99.90;;;;;;5077508;28;20043;-75
2023/03/13 04:20:30;;;;;;;1999.90;999.90;;;9.70;99.90;;;;;;5077533;28;20036;-74
2023/03/13 04:22:56;;;;;;;1999.90;999.90;;;9.80;99.90;;;;;;5077239;28;20056;-74
2023/03/13 04:25:21;;;;;;;1999.90;999.90;;;9.80;99.90;;;;;;5077205;28;20029;-74
2023/03/13 04:27:47;;;;;;;1999.90;999.90;;;9.80;99.90;;;;;;5077222;28;20035;-74
2023/03/13 04:30:13;;;;;;;1999.90;999.90;;;10.00;99.90;;;;;;5077167;28;20049;-74
2023/03/13 04:32:38;;;;;;;1999.90;999.90;;;10.10;99.90;;;;;;5076956;28;20043;-74
2023/03/13 04:35:04;;;;;;;1999.90;999.90;;;10.10;99.90;;;;;;5077174;28;20035;-74
2023/03/13 04:37:30;;;;;;;1999.90;999.90;;;10.10;99.90;;;;;;5075723;28;20043;-74
2023/03/13 04:39:55;;;;;;;1999.90;999.90;;;10.00;99.90;;;;;;5075669;28;20123;-74
2023/03/13 04:42:21;;;;;;;1999.90;999.90;;;10.00;99.90;;;;;;5075660;28;20037;-74
2023/03/13 04:44:46;;;;;;;1999.90;999.90;;;10.10;99.90;;;;;;5076994;28;20091;-74
2023/03/13 04:47:12;;;;;;;1999.90;999.90;;;10.10;99.90;;;;;;5076811;28;20083;-74
2023/03/13 04:49:37;;;;;;;1999.90;999.90;;;10.10;99.90;;;;;;5076945;28;20037;-74
2023/03/13 04:52:03;;;;;;;1999.90;999.90;;;10.10;99.90;;;;;;5076889;28;20041;-73
2023/03/13 04:54:28;;;;;;;1999.90;999.90;;;10.20;99.90;;;;;;5076169;28;20622;-73
2023/03/13 04:56:54;;;;;;;1999.90;999.90;;;10.30;99.90;;;;;;5075114;28;20478;-74
2023/03/13 04:59:19;;;;;;;1999.90;999.90;;;10.30;99.90;;;;;;5076635;28;20103;-74
2023/03/13 05:01:45;;;;;;;1999.90;999.90;;;10.30;99.90;;;;;;5076624;28;20056;-74
2023/03/13 05:04:11;;;;;;;1999.90;999.90;;;10.30;99.90;;;;;;5076330;28;20100;-73
2023/03/13 05:06:37;;;;;;;1999.90;999.90;;;10.40;99.90;;;;;;5076741;28;20111;-73
2023/03/13 05:09:03;;;;;;;1999.90;999.90;;;10.50;99.90;;;;;;5076697;28;20033;-73
2023/03/13 05:11:28;;;;;;;1999.90;999.90;;;10.50;99.90;;;;;;5076467;28;20032;-73
2023/03/13 05:13:54;;;;;;;1999.90;999.90;;;10.50;99.90;;;;;;5076027;28;20045;-74
2023/03/13 05:16:19;;;;;;;1999.90;999.90;;;10.50;99.90;;;;;;5076098;28;20489;-74
2023/03/13 05:18:45;;;;;;;1999.90;999.90;;;10.50;99.90;;;;;;5076323;28;20033;-73
2023/03/13 05:21:10;;;;;;;1999.90;999.90;;;10.50;99.90;;;;;;5076501;28;20063;-74
2023/03/13 05:23:36;;;;;;;1999.90;999.90;;;10.50;99.90;;;;;;5075711;28;20554;-74
2023/03/13 05:26:01;;;;;;;1999.90;999.90;;;10.50;99.90;;;;;;5076038;28;20033;-74
2023/03/13 05:28:27;;;;;;;1999.90;999.90;;;10.60;99.90;;;;;;5074825;28;20037;-74
2023/03/13 05:30:53;;;;;;;1999.90;999.90;;;10.60;99.90;;;;;;5076028;28;20352;-74
2023/03/13 05:33:19;;;;;;;1999.90;999.90;;;10.60;99.90;;;;;;5076023;28;20507;-74
2023/03/13 05:35:45;;;;;;;1999.90;999.90;;;10.60;99.90;;;;;;5076079;28;20110;-74
2023/03/13 05:38:11;;;;;;;1999.90;999.90;;;10.70;99.90;;;;;;5075969;28;20037;-74
2023/03/13 05:40:37;;;;;;;1999.90;999.90;;;10.70;99.90;;;;;;5075998;28;20113;-74
2023/03/13 05:43:02;;;;;;;1999.90;999.90;;;10.80;99.90;;;;;;5074933;28;20039;-74
2023/03/13 05:45:28;;;;;;;1999.90;999.90;;;10.90;99.90;;;;;;5075615;28;20487;-74
2023/03/13 05:47:53;;;;;;;1999.90;999.90;;;11.00;99.90;;;;;;5075893;28;20530;-74
2023/03/13 05:50:19;;;;;;;1999.90;999.90;;;11.10;99.90;;;;;;5074084;28;24600;-74
2023/03/13 05:52:44;;;;;;;1999.90;999.90;;;11.10;99.90;;;;;;5075845;28;20124;-74
2023/03/13 05:55:10;;;;;;;1999.90;999.90;;;11.10;99.90;;;;;;5075445;28;20036;-74
2023/03/13 05:57:35;;;;;;;1999.90;999.90;;;11.10;99.90;;;;;;5075311;28;20442;-74
2023/03/13 06:00:01;;;;;;;1999.90;999.90;;;11.00;99.90;;;;;;5055405;28;20483;-74
2023/03/13 06:02:27;;;;;;;1999.90;999.90;;;10.90;99.90;;;;;;5055547;28;20033;-74
2023/03/13 06:04:52;;;;;;;1999.90;999.90;;;10.90;99.90;;;;;;5055042;28;20427;-74
2023/03/13 06:07:18;;;;;;;1999.90;999.90;;;10.90;99.90;;;;;;5055430;28;20095;-74
2023/03/13 06:09:43;;;;;;;1999.90;999.90;;;11.00;99.90;;;;;;5055317;28;20084;-73
2023/03/13 06:12:11;;;;;;;1999.90;999.90;;;11.10;99.90;;;;;;5053463;28;20053;-74
2023/03/13 06:14:36;;;;;;;1999.90;999.90;;;11.10;99.90;;;;;;5054770;28;20040;-74
2023/03/13 06:17:03;;;;;;;1999.90;999.90;;;11.10;99.90;;;;;;5055218;28;20033;-74
2023/03/13 06:19:29;;;;;;;1999.90;999.90;;;11.10;99.90;;;;;;5054959;28;20029;-74
2023/03/13 06:21:55;;;;;;;1999.90;999.90;;;11.10;99.90;;;;;;5055085;28;20471;-74
2023/03/13 06:24:20;;;;;;;1999.90;999.90;;;11.10;99.90;;;;;;5054818;28;20447;-74
2023/03/13 06:26:48;;;;;;;1999.90;999.90;;;11.20;99.90;;;;;;5040992;28;20038;-75
2023/03/13 06:29:14;;;;;;;1999.90;999.90;;;11.30;99.90;;;;;;5033710;28;20057;-75
2023/03/13 06:31:40;;;;;;;1999.90;999.90;;;11.30;99.90;;;;;;5045801;28;20068;-75
2023/03/13 06:34:05;;;;;;;1999.90;999.90;;;11.30;99.90;;;;;;5034423;28;20038;-74
2023/03/13 06:36:31;;;;;;;1999.90;999.90;;;11.30;99.90;;;;;;5034158;28;20372;-77
2023/03/13 06:38:57;;;;;;;1999.90;999.90;;;11.40;99.90;;;;;;5033556;28;20092;-75
2023/03/13 06:41:23;;;;;;;1999.90;999.90;;;11.40;99.90;;;;;;5033698;28;20530;-75
2023/03/13 06:43:48;;;;;;;1999.90;999.90;;;11.40;99.90;;;;;;5033497;28;20069;-74
2023/03/13 06:46:20;;;;;;;1999.90;999.90;;;11.50;99.90;;;;;;5034947;28;20038;-75
2023/03/13 06:48:45;;;;;;;1999.90;999.90;;;11.60;99.90;;;;;;5053125;28;20037;-75
2023/03/13 06:51:13;;;;;;;1999.90;999.90;;;11.70;99.90;;;;;;5036727;28;20034;-76
2023/03/13 06:53:38;;;;;;;1999.90;999.90;;;11.60;99.90;;;;;;5034887;28;20049;-75
2023/03/13 06:56:04;;;;;;;1999.90;999.90;;;11.70;99.90;;;;;;5034750;28;20041;-74
2023/03/13 06:58:30;;;;;;;1999.90;999.90;;;11.80;99.90;;;;;;5033445;28;20029;-75
2023/03/13 07:00:55;;;;;;;1999.90;999.90;;;11.80;99.90;;;;;;5034738;28;20018;-74
2023/03/13 07:03:21;;;;;;;1999.90;999.90;;;11.90;99.90;;;;;;5045111;28;20038;-75
2023/03/13 07:05:46;;;;;;;1999.90;999.90;;;11.90;99.90;;;;;;5048918;28;20861;-74
2023/03/13 07:08:12;;;;;;;1999.90;999.90;;;11.90;99.90;;;;;;5034595;28;21761;-75
2023/03/13 07:10:37;;;;;;;1999.90;999.90;;;11.90;99.90;;;;;;5040899;28;20053;-75
2023/03/13 07:13:04;;;;;;;1999.90;999.90;;;11.90;99.90;;;;;;5053021;28;20064;-75
2023/03/13 07:15:29;;;;;;;1999.90;999.90;;;11.90;99.90;;;;;;5054635;28;20048;-74
2023/03/13 07:17:58;;;;;;;1999.90;999.90;;;12.00;99.90;;;;;;5053080;28;20033;-76
2023/03/13 07:20:23;;;;;;;1999.90;999.90;;;12.00;99.90;;;;;;5054289;28;21800;-76
2023/03/13 07:22:52;;;;;;;1999.90;999.90;;;12.00;99.90;;;;;;5054240;28;20037;-75
2023/03/13 07:25:18;;;;;;;1999.90;999.90;;;12.10;99.90;;;;;;5052737;28;20573;-75
2023/03/13 07:27:44;;;;;;;1999.90;999.90;;;12.20;99.90;;;;;;5054484;28;20116;-75
2023/03/13 07:30:10;;;;;;;1999.90;999.90;;;12.20;99.90;;;;;;5054792;28;20022;-77
2023/03/13 07:32:35;;;;;;;1999.90;999.90;;;12.20;99.90;;;;;;5053894;28;20041;-74
2023/03/13 07:35:03;;;;;;;1999.90;999.90;;;12.30;99.90;;;;;;5042677;28;20046;-74
2023/03/13 07:37:29;;;;;;;1999.90;999.90;;;12.40;99.90;;;;;;5054274;28;20036;-75
2023/03/13 07:39:54;;;;;;;1999.90;999.90;;;12.40;99.90;;;;;;5052906;28;20036;-75
2023/03/13 07:42:20;;;;;;;1999.90;999.90;;;12.60;99.90;;;;;;5054109;28;20029;-75
2023/03/13 07:44:45;;;;;;;1999.90;999.90;;;12.80;99.90;;;;;;5053406;28;20453;-76
2023/03/13 07:47:11;;;;;;;1999.90;999.90;;;12.90;99.90;;;;;;5042169;28;20034;-75
2023/03/13 07:49:40;;;;;;;1999.90;999.90;;;12.90;99.90;;;;;;5049667;28;20491;-75
2023/03/13 07:52:06;;;;;;;1999.90;999.90;;;12.80;99.90;;;;;;5056106;28;20037;-75
2023/03/13 07:54:32;;;;;;;1999.90;999.90;;;12.90;99.90;;;;;;5055633;28;20100;-75
2023/03/13 07:56:57;;;;;;;1999.90;999.90;;;12.90;99.90;;;;;;5057605;28;20038;-75
2023/03/13 07:59:23;;;;;;;1999.90;999.90;;;13.00;99.90;;;;;;5057553;28;20514;-76
2023/03/13 08:01:49;;;;;;;1999.90;999.90;;;13.00;99.90;;;;;;5057636;28;20048;-75
2023/03/13 08:04:14;;;;;;;1999.90;999.90;;;13.00;99.90;;;;;;5056758;28;20117;-77
2023/03/13 08:06:40;;;;;;;1999.90;999.90;;;13.20;99.90;;;;;;5055986;28;20432;-75
2023/03/13 08:09:07;;;;;;;1999.90;999.90;;;13.20;99.90;;;;;;5055654;28;20029;-76
2023/03/13 08:11:33;;;;;;;1999.90;999.90;;;13.40;99.90;;;;;;5061629;28;20049;-75
2023/03/13 08:13:58;;;;;;;1999.90;999.90;;;13.60;99.90;;;;;;5052941;28;20625;-75
2023/03/13 08:16:26;;;;;;;1999.90;999.90;;;13.70;99.90;;;;;;5067764;28;20048;-74
2023/03/13 08:18:54;;;;;;;1999.90;999.90;;;13.90;99.90;;;;;;5060614;28;20587;-79
2023/03/13 08:21:31;;;;;;;1999.90;999.90;;;14.00;99.90;;;;;;5069225;28;20113;-75
2023/03/13 08:23:58;;;;;;;1999.90;999.90;;;14.10;99.90;;;;;;5059891;28;20175;-74
2023/03/13 08:26:29;;;;;;;1999.90;999.90;;;14.40;99.90;;;;;;5057035;28;20453;-74
2023/03/13 08:29:00;;;;;;;1999.90;999.90;;;14.60;99.90;;;;;;5050604;28;20040;-74
2023/03/13 08:31:31;;;;;;;1999.90;999.90;;;14.70;99.90;;;;;;5059537;28;20124;-73
2023/03/13 08:33:58;;;;;;;1999.90;999.90;;;14.70;99.90;;;;;;5054852;28;20048;-76
2023/03/13 08:36:30;;;;;;;1999.90;999.90;;;14.70;99.90;;;;;;5072365;28;20106;-75
2023/03/13 08:38:59;;;;;;;1999.90;999.90;;;14.60;99.90;;;;;;5079203;28;20037;-73
2023/03/13 08:41:31;;;;;;;1999.90;999.90;;;14.30;99.90;;;;;;5052591;28;20482;-77
2023/03/13 08:43:57;;;;;;;1999.90;999.90;;;14.20;99.90;;;;;;5040644;28;20184;-74
2023/03/13 08:46:23;;;;;;;1999.90;999.90;;;14.20;99.90;;;;;;5041678;28;20125;-74
2023/03/13 08:48:53;;;;;;;1999.90;999.90;;;14.20;99.90;;;;;;5055967;28;20483;-74
2023/03/13 08:51:20;;;;;;;1999.90;999.90;;;14.40;99.90;;;;;;5056505;28;20040;-75
2023/03/13 08:53:47;;;;;;;1999.90;999.90;;;14.60;99.90;;;;;;5055962;28;20131;-74
2023/03/13 08:56:15;;;;;;;1999.90;999.90;;;14.80;99.90;;;;;;5056331;28;20555;-74
2023/03/13 08:58:41;;;;;;;1999.90;999.90;;;15.00;99.90;;;;;;5056953;28;20042;-75
2023/03/13 09:01:09;;;;;;;1999.90;999.90;;;15.20;99.90;;;;;;5054251;28;20030;-75
2023/03/13 09:03:35;;;;;;;1999.90;999.90;;;15.20;99.90;;;;;;5054222;28;20041;-75
2023/03/13 09:06:01;;;;;;;1999.90;999.90;;;15.10;99.90;;;;;;5056223;28;20033;-74
2023/03/13 09:08:28;;;;;;;1999.90;999.90;;;15.10;99.90;;;;;;5047733;28;20049;-76
2023/03/13 09:10:59;;;;;;;1999.90;999.90;;;15.00;99.90;;;;;;5038860;28;20034;-75
2023/03/13 09:13:26;;;;;;;1999.90;999.90;;;14.90;99.90;;;;;;5046414;28;20526;-75
2023/03/13 09:15:55;;;;;;;1999.90;999.90;;;14.70;99.90;;;;;;5043589;28;20033;-74
2023/03/13 09:18:21;;;;;;;1999.90;999.90;;;14.70;99.90;;;;;;5050951;28;20514;-74
2023/03/13 09:20:47;;;;;;;1999.90;999.90;;;14.80;99.90;;;;;;5055314;28;20080;-74
2023/03/13 09:23:12;;;;;;;1999.90;999.90;;;14.90;99.90;;;;;;5055476;28;20033;-74
2023/03/13 09:25:38;;;;;;;1999.90;999.90;;;14.90;99.90;;;;;;5055448;28;20034;-74
2023/03/13 09:28:04;;;;;;;1999.90;999.90;;;15.00;99.90;;;;;;5053725;28;20419;-75
2023/03/13 09:30:29;;;;;;;1999.90;999.90;;;14.90;99.90;;;;;;5055260;28;20041;-75
2023/03/13 09:32:55;;;;;;;1999.90;999.90;;;14.90;99.90;;;;;;5054307;28;20746;-75
2023/03/13 09:35:20;;;;;;;1999.90;999.90;;;14.70;99.90;;;;;;5055019;28;20380;-75
2023/03/13 09:37:46;;;;;;;1999.90;999.90;;;14.80;99.90;;;;;;5055321;28;20045;-74
2023/03/13 09:40:18;;;;;;;1999.90;999.90;;;14.70;99.90;;;;;;5055234;28;20037;-75
2023/03/13 09:43:01;;;;;;;1999.90;999.90;;;14.60;99.90;;;;;;5053975;28;20073;-74
2023/03/13 09:45:35;;;;;;;1999.90;999.90;;;14.60;99.90;;;;;;5054565;28;20518;-76
2023/03/13 09:48:21;;;;;;;1999.90;999.90;;;14.60;99.90;;;;;;5055303;28;20044;-75
2023/03/13 09:50:58;;;;;;;1999.90;999.90;;;14.80;99.90;;;;;;5055395;28;20117;-77
2023/03/13 09:53:52;;;;;;;1999.90;999.90;;;15.20;99.90;;;;;;5055058;28;20045;-73
2023/03/13 09:56:28;;;;;;;1999.90;999.90;;;15.90;99.90;;;;;;5032844;28;20038;-74
2023/03/13 09:59:02;;;;;;;1999.90;999.90;;;15.90;99.90;;;;;;5056264;28;20043;-77
2023/03/13 10:01:30;;;;;;;1999.90;999.90;;;16.10;99.90;;;;;;5055414;28;20513;-76
2023/03/13 10:04:12;;;;;;;1999.90;999.90;;;16.20;99.90;;;;;;5053486;28;20491;-73
2023/03/13 10:06:42;;;;;;;1999.90;999.90;;;16.40;99.90;;;;;;5053725;28;20072;-76
2023/03/13 10:09:19;;;;;;;1999.90;999.90;;;16.50;99.90;;;;;;5055132;28;20035;-78
2023/03/13 10:12:08;;;;;;;1999.90;999.90;;;16.50;99.90;;;;;;5055302;28;20092;-78
2023/03/13 10:14:38;;;;;;;1999.90;999.90;;;16.30;99.90;;;;;;5047891;28;20917;-76
2023/03/13 10:17:19;;;;;;;1999.90;999.90;;;16.10;99.90;;;;;;5050744;28;20033;-77
2023/03/13 10:19:50;;;;;;;1999.90;999.90;;;16.00;99.90;;;;;;5050215;28;20057;-76
2023/03/13 10:22:20;;;;;;;1999.90;999.90;;;16.30;99.90;;;;;;5055088;28;20030;-77
2023/03/13 10:24:56;;;;;;;1999.90;999.90;;;16.70;99.90;;;;;;5052995;28;20042;-78
2023/03/13 10:27:22;;;;;;;1999.90;999.90;;;17.00;99.90;;;;;;5053508;28;20116;-76
2023/03/13 10:29:47;;;;;;;1999.90;999.90;;;17.50;99.90;;;;;;5055068;28;20566;-76
2023/03/13 10:32:15;;;;;;;1999.90;999.90;;;17.90;99.90;;;;;;5053503;28;20041;-79
2023/03/13 10:34:51;;;;;;;1999.90;999.90;;;17.90;99.90;;;;;;5051195;28;20060;-78
2023/03/13 10:37:29;;;;;;;1999.90;999.90;;;17.60;99.90;;;;;;5054780;28;20490;-77
2023/03/13 10:40:28;;;;;;;1999.90;999.90;;;17.50;99.90;;;;;;5056676;28;20029;-76
2023/03/13 10:43:04;;;;;;;1999.90;999.90;;;17.30;99.90;;;;;;5055153;28;20567;-79
2023/03/13 10:45:35;;;;;;;1999.90;999.90;;;17.30;99.90;;;;;;5053725;28;20037;-79
2023/03/13 10:48:11;;;;;;;1999.90;999.90;;;17.30;99.90;;;;;;5054662;28;20034;-77
2023/03/13 10:50:41;;;;;;;1999.90;999.90;;;17.60;99.90;;;;;;5054858;28;20030;-78
2023/03/13 10:53:20;;;;;;;1999.90;999.90;;;17.90;99.90;;;;;;5055040;28;20060;-78
2023/03/13 10:55:46;;;;;;;1999.90;999.90;;;18.10;99.90;;;;;;5055877;28;20034;-80
2023/03/13 10:58:20;;;;;;;1999.90;999.90;;;18.40;99.90;;;;;;5055342;28;20507;-80
2023/03/13 11:00:47;;;;;;;1999.90;999.90;;;18.60;99.90;;;;;;5057254;28;20064;-80
2023/03/13 11:03:21;;;;;;;1999.90;999.90;;;18.70;99.90;;;;;;5054991;28;20103;-79
2023/03/13 11:05:58;;;;;;;1999.90;999.90;;;18.60;99.90;;;;;;5054367;28;20037;-77
2023/03/13 11:08:35;;;;;;;1999.90;999.90;;;18.80;99.90;;;;;;5053418;28;20056;-78
2023/03/13 11:11:04;;;;;;;1999.90;999.90;;;19.10;99.90;;;;;;5055642;28;20037;-79
2023/03/13 11:13:41;;;;;;;1999.90;999.90;;;19.30;99.90;;;;;;5055431;28;20037;-80
2023/03/13 11:16:22;;;;;;;1999.90;999.90;;;19.50;99.90;;;;;;5055683;28;20614;-80
2023/03/13 11:19:10;;;;;;;1999.90;999.90;;;19.90;99.90;;;;;;5056708;28;20531;-80
2023/03/13 11:22:09;;;;;;;1999.90;999.90;;;20.00;99.60;;;;;;5055811;28;20121;-80
2023/03/13 11:24:53;;;;;;;1999.90;999.90;;;19.40;99.50;;;;;;5056729;28;20041;-78
2023/03/13 11:27:42;;;;;;;1999.90;999.90;;;18.80;99.90;;;;;;5060619;28;20033;-76
2023/03/13 11:30:29;;;;;;;1999.90;999.90;;;18.70;99.90;;;;;;5072963;28;20029;-80
2023/03/13 11:33:11;;;;;;;1999.90;999.90;;;18.60;99.90;;;;;;5067818;28;20037;-80
2023/03/13 11:35:45;;;;;;;1999.90;999.90;;;18.70;99.90;;;;;;5059185;28;20040;-77
2023/03/13 11:38:26;;;;;;;1999.90;999.90;;;18.70;99.90;;;;;;5056747;28;20041;-78
2023/03/13 12:28:50;;;;;;;1999.90;999.90;;;20.60;96.10;;;;;;5110807;28;20364;-76
2023/03/13 12:31:25;;;;;;;1999.90;999.90;;;20.60;96.50;;;;;;5110555;28;20441;-77
2023/03/13 12:33:54;;;;;;;1999.90;999.90;;;20.60;96.30;;;;;;5110393;28;20036;-77
2023/03/13 12:36:28;;;;;;;1999.90;999.90;;;20.30;96.00;;;;;;5111787;28;20750;-78
2023/03/13 12:39:00;;;;;;;1999.90;999.90;;;20.10;95.80;;;;;;5112172;27;20481;-78
2023/03/13 12:41:48;;;;;;;1999.90;999.90;;;20.10;97.40;;;;;;5111794;27;20035;-78
2023/03/13 12:44:18;;;;;;;1999.90;999.90;;;19.90;96.50;;;;;;5109993;28;20117;-78
2023/03/13 12:47:07;;;;;;;1999.90;999.90;;;20.10;97.20;;;;;;5111703;27;20130;-78
2023/03/13 12:50:17;;;;;;;1999.90;999.90;;;20.30;95.90;;;;;;5108685;28;20029;-77
2023/03/13 12:53:15;;;;;;;1999.90;999.90;;;20.80;96.20;;;;;;5109424;27;20048;-77
2023/03/13 12:55:59;;;;;;;1999.90;999.90;;;21.50;95.00;;;;;;5109852;28;20520;-77
2023/03/13 12:58:46;;;;;;;1999.90;999.90;;;21.90;94.20;;;;;;5108256;28;20032;-78